createdAt,value
2018-08-28T00:00:19.615Z,22.66
2018-08-28T00:02:47.337Z,22.88
2018-08-28T00:05:15.025Z,22.94
2018-08-28T00:07:42.689Z,22.83
2018-08-28T00:10:10.431Z,22.72
2018-08-28T00:12:38.085Z,22.99
2018-08-28T00:15:06.073Z,23.10
2018-08-28T00:17:33.746Z,23.08
2018-08-28T00:20:01.421Z,22.86
2018-08-28T00:22:29.078Z,22.82
2018-08-28T00:24:56.786Z,22.70
2018-08-28T00:27:24.441Z,22.19
2018-08-28T00:29:52.099Z,21.98
2018-08-28T00:32:19.852Z,22.00
2018-08-28T00:34:47.502Z,22.27
2018-08-28T00:37:15.162Z,22.46
2018-08-28T00:39:42.841Z,22.22
2018-08-28T00:42:10.484Z,22.16
2018-08-28T00:44:38.162Z,22.43
2018-08-28T00:47:05.851Z,22.34
2018-08-28T00:49:33.532Z,22.04
2018-08-28T00:52:01.218Z,21.59
2018-08-28T00:54:28.982Z,21.59
2018-08-28T00:56:56.635Z,21.70
2018-08-28T00:59:24.298Z,21.78
2018-08-28T01:01:53.053Z,21.95
2018-08-28T01:04:20.743Z,21.81
2018-08-28T01:06:49.248Z,21.64
2018-08-28T01:09:16.936Z,21.82
2018-08-28T01:11:44.594Z,22.05
2018-08-28T01:14:12.257Z,22.01
2018-08-28T01:16:39.951Z,22.12
2018-08-28T01:19:07.619Z,21.89
2018-08-28T01:21:35.354Z,22.07
2018-08-28T01:24:03.071Z,21.80
2018-08-28T01:26:30.759Z,21.98
2018-08-28T01:28:58.498Z,22.15
2018-08-28T01:31:26.186Z,22.29
2018-08-28T01:33:53.843Z,22.48
2018-08-28T01:36:21.522Z,22.63
2018-08-28T01:38:49.206Z,22.64
2018-08-28T01:41:16.880Z,22.78
2018-08-28T01:43:44.541Z,22.79
2018-08-28T01:46:12.234Z,22.88
2018-08-28T01:48:39.891Z,22.99
2018-08-28T01:51:07.550Z,22.86
2018-08-28T01:53:35.337Z,22.99
2018-08-28T01:56:03.023Z,22.99
2018-08-28T01:58:30.682Z,22.96
2018-08-28T02:00:58.404Z,22.90
2018-08-28T02:03:26.066Z,22.81
2018-08-28T02:05:53.711Z,22.81
2018-08-28T02:08:21.409Z,22.88
2018-08-28T02:10:49.085Z,22.79
2018-08-28T02:13:16.779Z,22.93
2018-08-28T02:15:44.486Z,22.95
2018-08-28T02:18:12.166Z,22.93
2018-08-28T02:20:39.838Z,22.42
2018-08-28T02:23:07.542Z,22.66
2018-08-28T02:25:35.209Z,22.61
2018-08-28T02:28:02.874Z,22.56
2018-08-28T02:30:30.555Z,22.49
2018-08-28T02:32:58.245Z,22.52
2018-08-28T02:35:25.938Z,22.55
2018-08-28T02:37:53.623Z,22.58
2018-08-28T02:40:21.294Z,22.57
2018-08-28T02:42:48.954Z,22.50
2018-08-28T02:45:16.746Z,22.48
2018-08-28T02:47:44.418Z,22.62
2018-08-28T02:50:12.095Z,22.57
2018-08-28T02:52:39.806Z,22.45
2018-08-28T02:55:07.533Z,22.47
2018-08-28T02:57:35.194Z,22.05
2018-08-28T03:00:03.048Z,21.97
2018-08-28T03:02:30.717Z,22.26
2018-08-28T03:04:58.391Z,22.31
2018-08-28T03:07:26.098Z,22.21
2018-08-28T03:09:53.766Z,22.28
2018-08-28T03:12:21.449Z,21.98
2018-08-28T03:14:49.127Z,21.91
2018-08-28T03:17:17.162Z,22.20
2018-08-28T03:19:44.825Z,21.92
2018-08-28T03:22:12.582Z,22.22
2018-08-28T03:24:40.233Z,22.28
2018-08-28T03:27:07.934Z,22.40
2018-08-28T03:29:35.629Z,21.97
2018-08-28T03:32:03.307Z,21.94
2018-08-28T03:34:30.981Z,21.72
2018-08-28T03:36:58.758Z,21.66
2018-08-28T03:39:26.716Z,21.85
2018-08-28T03:41:54.374Z,21.95
2018-08-28T03:44:22.102Z,21.97
2018-08-28T03:46:49.775Z,21.85
2018-08-28T03:49:17.437Z,21.74
2018-08-28T03:51:45.166Z,21.69
2018-08-28T03:54:12.870Z,22.04
2018-08-28T03:56:40.623Z,21.96
2018-08-28T03:59:08.327Z,22.04
2018-08-28T04:01:36.014Z,21.99
2018-08-28T04:04:03.691Z,22.05
2018-08-28T04:06:31.494Z,21.95
2018-08-28T04:08:59.175Z,21.64
2018-08-28T04:11:26.859Z,21.76
2018-08-28T04:13:54.580Z,21.61
2018-08-28T04:16:22.257Z,21.66
2018-08-28T04:18:49.925Z,21.76
2018-08-28T04:21:17.630Z,21.86
2018-08-28T04:23:45.298Z,22.04
2018-08-28T04:26:12.973Z,21.71
2018-08-28T04:28:40.674Z,21.84
2018-08-28T04:31:08.366Z,21.63
2018-08-28T04:33:36.035Z,21.88
2018-08-28T04:36:03.755Z,21.89
2018-08-28T04:38:31.423Z,22.02
2018-08-28T04:40:59.097Z,21.97
2018-08-28T04:43:26.790Z,22.11
2018-08-28T04:45:54.466Z,21.91
2018-08-28T04:48:22.238Z,22.03
2018-08-28T04:50:49.939Z,21.97
2018-08-28T04:53:17.614Z,21.81
2018-08-28T04:55:45.274Z,21.84
2018-08-28T04:58:13.025Z,21.56
2018-08-28T05:00:40.721Z,21.53
2018-08-28T05:03:08.406Z,21.69
2018-08-28T05:05:36.129Z,21.89
2018-08-28T05:08:03.854Z,21.92
2018-08-28T05:10:31.511Z,21.67
2018-08-28T05:12:59.214Z,21.73
2018-08-28T05:15:26.871Z,21.99
2018-08-28T05:17:54.530Z,22.13
2018-08-28T05:20:22.221Z,22.41
2018-08-28T05:22:49.907Z,22.11
2018-08-28T05:25:17.621Z,22.43
2018-08-28T05:27:45.406Z,22.12
2018-08-28T05:30:13.090Z,22.54
2018-08-28T05:32:40.758Z,22.84
2018-08-28T05:35:08.576Z,23.07
2018-08-28T05:37:36.229Z,22.92
2018-08-28T05:40:04.058Z,23.06
2018-08-28T05:42:31.758Z,22.98
2018-08-28T05:44:59.430Z,22.56
2018-08-28T05:47:27.130Z,23.02
2018-08-28T05:49:54.853Z,22.45
2018-08-28T05:52:22.560Z,22.69
2018-08-28T05:54:50.269Z,22.73
2018-08-28T05:57:17.996Z,22.61
2018-08-28T05:59:45.674Z,22.05
2018-08-28T06:02:13.354Z,22.63
2018-08-28T06:04:41.045Z,22.46
2018-08-28T06:07:08.783Z,22.57
2018-08-28T06:09:36.445Z,22.63
2018-08-28T06:12:04.171Z,22.93
2018-08-28T06:14:31.894Z,22.78
2018-08-28T06:16:59.555Z,22.61
2018-08-28T06:19:27.266Z,23.06
2018-08-28T06:21:54.974Z,23.34
2018-08-28T06:24:22.655Z,23.86
2018-08-28T06:26:50.355Z,24.00
2018-08-28T06:29:18.014Z,24.58
2018-08-28T06:31:45.691Z,24.73
2018-08-28T06:34:13.409Z,24.38
2018-08-28T06:36:41.082Z,24.18
2018-08-28T06:39:09.299Z,24.01
2018-08-28T06:41:37.064Z,24.42
2018-08-28T06:44:04.776Z,23.78
2018-08-28T06:46:32.549Z,24.15
2018-08-28T06:49:00.250Z,23.81
2018-08-28T06:51:28.001Z,24.08
2018-08-28T06:53:55.713Z,23.58
2018-08-28T06:56:23.493Z,23.91
2018-08-28T06:58:51.257Z,24.05
2018-08-28T07:01:19.008Z,23.95
2018-08-28T07:03:46.766Z,24.04
2018-08-28T07:06:14.509Z,24.35
2018-08-28T07:08:42.223Z,24.36
2018-08-28T07:11:09.972Z,24.21
2018-08-28T07:13:37.697Z,24.28
2018-08-28T07:16:05.757Z,24.44
2018-08-28T07:18:33.441Z,24.37
2018-08-28T07:21:01.143Z,24.38
2018-08-28T07:23:28.885Z,24.35
2018-08-28T07:25:56.681Z,24.10
2018-08-28T07:28:24.290Z,24.31
2018-08-28T07:30:51.999Z,24.21
2018-08-28T07:33:19.706Z,23.76
2018-08-28T07:35:47.425Z,23.70
2018-08-28T07:38:15.100Z,23.92
2018-08-28T07:40:42.803Z,23.86
2018-08-28T07:43:10.465Z,24.05
2018-08-28T07:45:38.164Z,24.29
2018-08-28T07:48:05.979Z,24.62
2018-08-28T07:50:33.686Z,24.02
2018-08-28T07:53:01.363Z,24.85
2018-08-28T07:55:29.097Z,25.32
2018-08-28T07:57:56.809Z,26.06
2018-08-28T08:00:24.508Z,26.72
2018-08-28T08:02:52.207Z,26.46
2018-08-28T08:05:19.898Z,26.45
2018-08-28T08:07:47.572Z,26.70
2018-08-28T08:10:15.317Z,27.39
2018-08-28T08:12:42.996Z,26.64
2018-08-28T08:15:10.709Z,26.05
2018-08-28T08:17:38.712Z,26.18
2018-08-28T08:20:06.406Z,26.61
2018-08-28T08:22:34.085Z,27.13
2018-08-28T08:25:01.876Z,26.53
2018-08-28T08:27:29.566Z,25.82
2018-08-28T08:29:57.215Z,25.92
2018-08-28T08:32:24.926Z,25.32
2018-08-28T08:34:52.617Z,25.20
2018-08-28T08:37:20.327Z,25.50
2018-08-28T08:39:48.018Z,25.53
2018-08-28T08:42:15.687Z,25.48
2018-08-28T08:44:43.399Z,25.82
2018-08-28T08:47:11.198Z,26.12
2018-08-28T08:49:38.869Z,25.70
2018-08-28T08:52:06.562Z,26.71
2018-08-28T08:54:34.269Z,26.54
2018-08-28T08:57:01.984Z,26.74
2018-08-28T08:59:29.641Z,26.57
2018-08-28T09:01:57.350Z,27.09
2018-08-28T09:04:25.026Z,27.35
2018-08-28T09:06:52.699Z,27.91
2018-08-28T09:09:20.400Z,28.21
2018-08-28T09:11:48.071Z,27.99
2018-08-28T09:14:15.733Z,27.12
2018-08-28T09:16:43.494Z,27.13
2018-08-28T09:19:11.237Z,27.25
2018-08-28T09:21:38.885Z,27.50
2018-08-28T09:24:06.647Z,27.37
2018-08-28T09:26:34.384Z,27.45
2018-08-28T09:29:02.067Z,27.48
2018-08-28T09:31:29.832Z,27.77
2018-08-28T09:33:57.522Z,28.02
2018-08-28T09:36:25.286Z,27.35
2018-08-28T09:38:53.176Z,27.20
2018-08-28T09:41:20.885Z,26.95
2018-08-28T09:43:48.584Z,27.31
2018-08-28T09:46:16.376Z,27.21
2018-08-28T09:48:44.049Z,27.26
2018-08-28T09:51:11.806Z,26.31
2018-08-28T09:53:39.518Z,26.56
2018-08-28T09:56:07.245Z,26.86
2018-08-28T09:58:35.072Z,26.93
2018-08-28T10:01:08.277Z,26.45
2018-08-28T10:03:35.992Z,27.13
2018-08-28T10:06:03.708Z,27.42
2018-08-28T10:08:31.454Z,26.92
2018-08-28T10:10:59.269Z,25.91
2018-08-28T10:13:26.944Z,26.09
2018-08-28T10:15:54.665Z,25.43
2018-08-28T10:18:22.370Z,26.07
2018-08-28T10:20:50.030Z,26.37
2018-08-28T10:23:17.728Z,26.95
2018-08-28T10:25:45.439Z,27.46
2018-08-28T10:28:13.186Z,28.09
2018-08-28T10:30:40.893Z,27.98
2018-08-28T10:33:08.608Z,28.90
2018-08-28T10:35:36.282Z,27.88
2018-08-28T10:38:04.072Z,28.38
2018-08-28T10:40:31.749Z,28.47
2018-08-28T10:42:59.421Z,28.55
2018-08-28T10:45:27.157Z,29.14
2018-08-28T10:47:54.836Z,29.70
2018-08-28T10:50:22.553Z,30.45
2018-08-28T10:52:50.269Z,29.67
2018-08-28T10:55:18.002Z,30.42
2018-08-28T10:57:45.661Z,30.70
2018-08-28T11:00:13.461Z,31.78
2018-08-28T11:02:41.153Z,30.93
2018-08-28T11:05:08.888Z,32.20
2018-08-28T11:07:36.610Z,30.57
2018-08-28T11:10:04.430Z,30.04
2018-08-28T11:12:32.190Z,29.09
2018-08-28T11:14:59.913Z,30.20
2018-08-28T11:17:27.638Z,31.47
2018-08-28T11:19:56.025Z,31.16
2018-08-28T11:22:23.808Z,31.32
2018-08-28T11:24:51.486Z,32.35
2018-08-28T11:27:19.199Z,31.15
2018-08-28T11:29:46.938Z,30.89
2018-08-28T11:32:14.641Z,32.46
2018-08-28T11:34:42.371Z,32.38
2018-08-28T11:37:10.064Z,31.83
2018-08-28T11:39:37.949Z,32.34
2018-08-28T11:42:05.766Z,32.45
2018-08-28T11:44:33.499Z,32.13
2018-08-28T11:47:01.263Z,32.16
2018-08-28T11:49:28.988Z,31.12
2018-08-28T11:51:57.606Z,31.65
2018-08-28T11:54:25.300Z,32.08
2018-08-28T11:56:53.093Z,30.47
2018-08-28T11:59:20.822Z,30.26
2018-08-28T12:01:48.531Z,30.72
2018-08-28T12:04:16.324Z,31.13
2018-08-28T12:06:44.138Z,32.74
2018-08-28T12:09:12.134Z,31.14
2018-08-28T12:11:39.786Z,32.53
2018-08-28T12:14:07.533Z,32.43
2018-08-28T12:16:35.317Z,32.98
2018-08-28T12:19:03.022Z,32.46
2018-08-28T12:21:30.749Z,32.55
2018-08-28T12:23:58.449Z,31.15
2018-08-28T12:26:26.127Z,30.86
2018-08-28T12:28:53.858Z,31.09
2018-08-28T12:31:21.539Z,30.07
2018-08-28T12:33:49.286Z,30.27
2018-08-28T12:36:17.052Z,30.21
2018-08-28T12:38:44.769Z,30.11
2018-08-28T12:41:12.458Z,29.51
2018-08-28T12:43:40.153Z,29.87
2018-08-28T12:46:07.960Z,30.54
2018-08-28T12:48:35.661Z,31.56
2018-08-28T12:51:03.501Z,30.98
2018-08-28T12:53:31.188Z,31.24
2018-08-28T12:55:58.891Z,31.78
2018-08-28T12:58:26.646Z,31.48
2018-08-28T13:00:54.353Z,30.67
2018-08-28T13:03:22.070Z,31.55
2018-08-28T13:05:49.874Z,32.74
2018-08-28T13:08:17.604Z,31.92
2018-08-28T13:10:45.326Z,31.74
2018-08-28T13:13:13.081Z,32.26
2018-08-28T13:15:40.802Z,31.54
2018-08-28T13:18:08.525Z,31.55
2018-08-28T13:20:36.305Z,31.62
2018-08-28T13:23:04.169Z,32.11
2018-08-28T13:25:32.005Z,32.85
2018-08-28T13:27:59.634Z,32.35
2018-08-28T13:30:27.364Z,31.32
2018-08-28T13:32:55.089Z,30.88
2018-08-28T13:35:22.853Z,30.42
2018-08-28T13:37:50.570Z,32.05
2018-08-28T13:40:18.303Z,32.11
2018-08-28T13:42:46.031Z,32.46
2018-08-28T13:45:13.756Z,33.03
2018-08-28T13:47:41.486Z,33.06
2018-08-28T13:50:09.266Z,31.69
2018-08-28T13:52:36.982Z,31.09
2018-08-28T13:55:04.726Z,30.66
2018-08-28T13:57:32.459Z,30.25
2018-08-28T14:00:00.155Z,30.06
2018-08-28T14:02:27.879Z,30.82
2018-08-28T14:04:55.581Z,30.80
2018-08-28T14:07:23.274Z,31.43
2018-08-28T14:09:51.019Z,31.67
2018-08-28T14:12:18.753Z,32.36
2018-08-28T14:14:46.670Z,32.22
2018-08-28T14:17:14.181Z,31.79
2018-08-28T14:19:41.933Z,31.14
2018-08-28T14:22:09.810Z,31.76
2018-08-28T14:24:37.490Z,30.96
2018-08-28T14:27:05.985Z,30.63
2018-08-28T14:29:33.685Z,30.85
2018-08-28T14:32:01.489Z,30.53
2018-08-28T14:34:29.186Z,30.35
2018-08-28T14:36:56.958Z,31.07
2018-08-28T14:39:24.705Z,31.09
2018-08-28T14:41:52.429Z,30.19
2018-08-28T14:44:20.314Z,30.97
2018-08-28T14:46:48.037Z,31.58
2018-08-28T14:49:15.801Z,31.22
2018-08-28T14:51:43.462Z,31.45
2018-08-28T14:54:11.173Z,30.52
2018-08-28T14:56:38.987Z,30.43
2018-08-28T14:59:06.693Z,30.66
2018-08-28T15:01:34.398Z,30.41
2018-08-28T15:04:02.357Z,30.69
2018-08-28T15:06:30.062Z,29.95
2018-08-28T15:08:57.719Z,29.71
2018-08-28T15:11:25.400Z,30.34
2018-08-28T15:13:53.169Z,31.00
2018-08-28T15:16:20.959Z,30.31
2018-08-28T15:18:48.810Z,29.56
2018-08-28T15:21:16.544Z,30.17
2018-08-28T15:23:44.321Z,30.32
2018-08-28T15:26:12.036Z,29.63
2018-08-28T15:28:39.751Z,30.14
2018-08-28T15:31:07.498Z,30.09
2018-08-28T15:33:35.410Z,30.25
2018-08-28T15:36:03.214Z,30.02
2018-08-28T15:38:30.971Z,30.44
2018-08-28T15:40:58.746Z,30.38
2018-08-28T15:43:26.458Z,29.94
2018-08-28T15:45:54.211Z,29.49
2018-08-28T15:48:21.961Z,29.67
2018-08-28T15:50:49.702Z,29.91
2018-08-28T15:53:17.405Z,30.11
2018-08-28T15:55:45.177Z,30.01
2018-08-28T15:58:12.886Z,29.92
2018-08-28T16:00:40.580Z,29.56
2018-08-28T16:03:08.366Z,29.75
2018-08-28T16:05:36.108Z,29.61
2018-08-28T16:08:03.910Z,29.43
2018-08-28T16:10:31.664Z,29.31
2018-08-28T16:12:59.382Z,28.80
2018-08-28T16:15:27.094Z,29.04
2018-08-28T16:17:54.846Z,29.12
2018-08-28T16:20:22.564Z,29.19
2018-08-28T16:22:52.890Z,29.03
2018-08-28T16:25:20.601Z,28.64
2018-08-28T16:27:48.453Z,28.37
2018-08-28T16:30:16.200Z,28.55
2018-08-28T16:32:43.965Z,28.01
2018-08-28T16:35:11.646Z,27.74
2018-08-28T16:37:39.416Z,27.40
2018-08-28T16:40:07.214Z,27.45
2018-08-28T16:42:34.944Z,27.55
2018-08-28T16:45:03.118Z,27.42
2018-08-28T16:47:30.889Z,27.17
2018-08-28T16:49:58.684Z,27.05
2018-08-28T16:52:26.372Z,26.91
2018-08-28T16:54:54.102Z,26.71
2018-08-28T16:57:21.805Z,26.79
2018-08-28T16:59:49.538Z,26.91
2018-08-28T17:02:17.261Z,26.95
2018-08-28T17:04:44.953Z,26.65
2018-08-28T17:07:12.700Z,26.32
2018-08-28T17:09:40.462Z,26.05
2018-08-28T17:12:08.194Z,26.19
2018-08-28T17:14:36.033Z,26.15
2018-08-28T17:17:03.797Z,26.13
2018-08-28T17:19:31.529Z,26.12
2018-08-28T17:21:59.225Z,26.22
2018-08-28T17:24:26.984Z,25.98
2018-08-28T17:26:54.765Z,26.13
2018-08-28T17:29:22.599Z,26.05
2018-08-28T17:31:50.769Z,26.07
2018-08-28T17:34:18.466Z,26.18
2018-08-28T17:36:46.313Z,26.09
2018-08-28T17:39:14.120Z,26.09
2018-08-28T17:41:41.864Z,26.19
2018-08-28T17:44:09.601Z,25.93
2018-08-28T17:46:37.746Z,26.01
2018-08-28T17:49:05.707Z,26.18
2018-08-28T17:51:33.321Z,26.26
2018-08-28T17:54:01.048Z,26.16
2018-08-28T17:56:28.734Z,26.12
2018-08-28T17:58:56.454Z,25.96
2018-08-28T18:01:24.275Z,26.03
2018-08-28T18:03:51.935Z,25.95
2018-08-28T18:06:19.595Z,26.01
2018-08-28T18:08:47.433Z,26.07
2018-08-28T18:11:15.166Z,25.57
2018-08-28T18:13:42.877Z,26.01
2018-08-28T18:16:10.614Z,25.91
2018-08-28T18:18:38.313Z,25.97
2018-08-28T18:21:06.017Z,25.95
2018-08-28T18:23:33.742Z,25.70
2018-08-28T18:26:01.474Z,25.73
2018-08-28T18:28:29.218Z,25.66
2018-08-28T18:30:56.953Z,25.65
2018-08-28T18:33:24.674Z,25.81
2018-08-28T18:35:52.385Z,25.63
2018-08-28T18:38:20.085Z,25.51
2018-08-28T18:40:47.816Z,25.89
2018-08-28T18:43:15.542Z,25.79
2018-08-28T18:45:43.958Z,25.68
2018-08-28T18:48:11.630Z,25.44
2018-08-28T18:50:39.332Z,25.53
2018-08-28T18:53:07.076Z,25.35
2018-08-28T18:55:34.771Z,25.31
2018-08-28T18:58:02.490Z,25.41
2018-08-28T19:00:31.408Z,25.50
2018-08-28T19:02:59.188Z,25.75
2018-08-28T19:05:26.874Z,25.50
2018-08-28T19:07:54.578Z,25.48
2018-08-28T19:10:22.273Z,25.27
2018-08-28T19:12:50.014Z,25.31
2018-08-28T19:15:17.757Z,25.21
2018-08-28T19:17:45.496Z,25.38
2018-08-28T19:20:13.198Z,25.51
2018-08-28T19:22:40.973Z,25.43
2018-08-28T19:25:09.334Z,25.48
2018-08-28T19:27:37.011Z,25.53
2018-08-28T19:30:05.092Z,25.65
2018-08-28T19:32:32.755Z,25.33
2018-08-28T19:35:00.431Z,25.26
2018-08-28T19:37:28.208Z,25.10
2018-08-28T19:39:55.920Z,25.00
2018-08-28T19:42:23.645Z,24.81
2018-08-28T19:44:51.413Z,24.82
2018-08-28T19:47:19.141Z,24.74
2018-08-28T19:49:46.858Z,24.74
2018-08-28T19:52:14.618Z,24.56
2018-08-28T19:54:42.301Z,24.59
2018-08-28T19:57:10.345Z,24.64
2018-08-28T19:59:38.097Z,24.69
2018-08-28T20:02:05.904Z,24.70
2018-08-28T20:04:33.632Z,24.70
2018-08-28T20:07:01.422Z,24.65
2018-08-28T20:09:29.128Z,24.48
2018-08-28T20:11:56.838Z,24.42
2018-08-28T20:14:24.619Z,24.61
2018-08-28T20:16:52.335Z,24.61
2018-08-28T20:19:20.006Z,24.38
2018-08-28T20:21:47.686Z,24.72
2018-08-28T20:24:15.376Z,24.59
2018-08-28T20:26:43.117Z,24.58
2018-08-28T20:29:10.876Z,24.58
2018-08-28T20:31:38.590Z,24.53
2018-08-28T20:34:06.597Z,24.27
2018-08-28T20:36:34.397Z,24.38
2018-08-28T20:39:02.252Z,24.48
2018-08-28T20:41:29.986Z,24.58
2018-08-28T20:43:57.697Z,24.35
2018-08-28T20:46:25.428Z,24.29
2018-08-28T20:48:53.429Z,24.25
2018-08-28T20:51:21.158Z,24.42
2018-08-28T20:53:48.846Z,24.50
2018-08-28T20:56:16.601Z,24.55
2018-08-28T20:58:44.285Z,24.25
2018-08-28T21:01:11.942Z,24.35
2018-08-28T21:03:39.604Z,24.29
2018-08-28T21:06:07.367Z,24.12
2018-08-28T21:08:35.089Z,24.43
2018-08-28T21:11:02.774Z,24.51
2018-08-28T21:13:30.533Z,24.49
2018-08-28T21:15:58.260Z,24.89
2018-08-28T21:18:25.986Z,24.75
2018-08-28T21:20:53.753Z,24.62
2018-08-28T21:23:21.449Z,24.39
2018-08-28T21:25:49.153Z,24.70
2018-08-28T21:28:16.885Z,24.15
2018-08-28T21:30:44.542Z,24.43
2018-08-28T21:33:12.357Z,24.48
2018-08-28T21:35:40.156Z,24.83
2018-08-28T21:38:07.936Z,24.30
2018-08-28T21:40:35.602Z,24.17
2018-08-28T21:43:03.365Z,24.18
2018-08-28T21:45:31.078Z,24.04
2018-08-28T21:47:58.831Z,24.35
2018-08-28T21:50:26.589Z,23.93
2018-08-28T21:52:54.271Z,24.23
2018-08-28T21:55:21.993Z,24.19
2018-08-28T21:57:49.806Z,24.09
2018-08-28T22:00:17.541Z,24.26
2018-08-28T22:02:45.280Z,24.38
2018-08-28T22:05:13.020Z,24.41
2018-08-28T22:07:41.858Z,24.21
2018-08-28T22:10:09.897Z,24.30
2018-08-28T22:12:37.631Z,24.23
2018-08-28T22:15:10.026Z,24.26
2018-08-28T22:17:37.765Z,24.47
2018-08-28T22:20:05.930Z,24.30
2018-08-28T22:22:33.603Z,24.47
2018-08-28T22:25:01.367Z,24.55
2018-08-28T22:27:29.055Z,24.71
2018-08-28T22:29:56.728Z,24.98
2018-08-28T22:32:24.487Z,24.96
2018-08-28T22:34:52.479Z,25.25
2018-08-28T22:37:20.172Z,25.41
2018-08-28T22:39:47.869Z,25.33
2018-08-28T22:42:15.554Z,25.38
2018-08-28T22:44:43.197Z,25.43
2018-08-28T22:47:10.913Z,25.42
2018-08-28T22:49:38.574Z,25.28
2018-08-28T22:52:06.268Z,25.47
2018-08-28T22:54:34.000Z,25.47
2018-08-28T22:57:01.679Z,25.41
2018-08-28T22:59:29.423Z,25.22
2018-08-28T23:01:57.128Z,25.02
2018-08-28T23:04:24.785Z,25.00
2018-08-28T23:06:52.466Z,24.75
2018-08-28T23:09:20.282Z,24.64
2018-08-28T23:11:47.988Z,24.43
2018-08-28T23:14:15.734Z,24.49
2018-08-28T23:16:43.432Z,24.18
2018-08-28T23:19:11.122Z,24.09
2018-08-28T23:21:38.818Z,23.91
2018-08-28T23:24:06.579Z,24.08
2018-08-28T23:26:34.262Z,24.11
2018-08-28T23:29:01.946Z,24.15
2018-08-28T23:31:29.638Z,24.12
2018-08-28T23:33:57.298Z,24.23
2018-08-28T23:36:24.965Z,24.25
2018-08-28T23:38:52.649Z,24.30
2018-08-28T23:41:20.317Z,23.95
2018-08-28T23:43:47.964Z,24.17
2018-08-28T23:46:15.662Z,24.30
2018-08-28T23:48:43.409Z,24.28
2018-08-28T23:51:11.090Z,24.04
2018-08-28T23:53:38.807Z,24.00
2018-08-28T23:56:06.942Z,23.96
2018-08-28T23:58:34.613Z,23.79
